Terminal Aerodrome Forecast
Issued by NWS

Home | Current Version | Previous Version | Text Only | Print | Product List | Glossary On
Versions: 1 2 3 4 5 6 7 8 9 10 11 12 13 14 15 16 17 18 19 20 21
935
FTUS41 KGYX 121120
TAFLEB
TAF
KLEB 121120Z 1212/1312 00000KT 2SM -SN OVC015
      TEMPO 1212/1215 1SM -SN OVC007
     FM121500 17005KT 1/2SM SN OVC015
     FM121800 13005KT 1/2SM SNRA OVC008=

USA.gov is the U.S. government's official web portal to all federal, state and local government web resources and services.